Time;durP1;ratioP1;P1;durP2;ratioP2;P2;SDS_P1;SDS_P2;PMS_P1;PMS_P2;Temp;Humidity;BMP_temperature;BMP_pressure;BME280_temperature;BME280_humidity;BME280_pressure;Samples;Min_cycle;Max_cycle;Signal;HPM_P1;HPM_P2
2022/05/11 08:37:25;;;;;;;1.73;1.50;;;;;;;;;;3855118;37;20051;-69
2022/05/11 08:39:54;;;;;;;2.12;1.60;;;;;;;;;;4398061;32;20085;-70
2022/05/11 08:42:20;;;;;;;2.35;1.70;;;;;;;;;;4404568;32;20504;-68
2022/05/11 08:44:49;;;;;;;3.35;1.60;;;;;;;;;;4394747;32;20089;-69
2022/05/11 08:47:45;;;;;;;2.42;1.70;;;;;;;;;;4405242;32;20077;-70
2022/05/11 08:50:16;;;;;;;3.00;1.60;;;;;;;;;;4388216;32;20470;-71
2022/05/11 08:53:02;;;;;;;5.40;1.90;;;;;;;;;;4391347;32;20515;-70
2022/05/11 08:55:37;;;;;;;4.80;2.03;;;;;;;;;;4402908;32;20077;-68
2022/05/11 08:58:24;;;;;;;2.95;1.60;;;;;;;;;;4403449;32;20070;-66
2022/05/11 09:00:53;;;;;;;2.97;1.60;;;;;;;;;;4402952;32;20066;-72
2022/05/11 09:03:32;;;;;;;3.83;1.70;;;;;;;;;;4402928;32;20161;-72
2022/05/11 09:06:00;;;;;;;3.80;1.42;;;;;;;;;;4377521;32;20453;-67
2022/05/11 09:08:37;;;;;;;2.45;1.50;;;;;;;;;;4402535;32;20081;-67
2022/05/11 09:11:05;;;;;;;5.00;1.60;;;;;;;;;;4377626;32;20082;-74
2022/05/11 09:13:33;;;;;;;3.55;1.40;;;;;;;;;;4402678;32;20145;-74
2022/05/11 09:16:02;;;;;;;6.47;1.80;;;;;;;;;;4402126;32;20080;-70
2022/05/11 09:18:31;;;;;;;6.82;1.90;;;;;;;;;;4377081;32;20500;-74
2022/05/11 09:21:08;;;;;;;4.05;1.60;;;;;;;;;;4401933;32;20169;-73
2022/05/11 09:23:38;;;;;;;6.78;1.87;;;;;;;;;;4402157;32;20156;-67
2022/05/11 09:26:07;;;;;;;2.62;1.40;;;;;;;;;;4402452;32;20161;-69
2022/05/11 09:28:40;;;;;;;2.62;1.27;;;;;;;;;;4389630;32;20070;-71
2022/05/11 09:31:08;;;;;;;3.22;1.83;;;;;;;;;;4389652;32;20082;-72
2022/05/11 09:33:43;;;;;;;3.62;1.75;;;;;;;;;;4402708;32;20157;-71
2022/05/11 09:36:11;;;;;;;4.22;1.65;;;;;;;;;;4398380;32;20154;-71
2022/05/11 09:38:43;;;;;;;3.33;2.17;;;;;;;;;;4392754;32;20069;-70
2022/05/11 09:43:58;;;;;;;6.20;1.97;;;;;;;;;;3833842;37;20448;-71
2022/05/11 09:46:29;;;;;;;3.22;1.60;;;;;;;;;;4376075;32;20184;-73
2022/05/11 09:49:15;;;;;;;2.83;1.90;;;;;;;;;;4364567;32;20161;-72
2022/05/11 09:51:51;;;;;;;2.90;1.75;;;;;;;;;;4388125;32;20058;-73
2022/05/11 09:54:28;;;;;;;2.45;1.50;;;;;;;;;;4402190;32;20559;-72
2022/05/11 09:57:02;;;;;;;5.55;1.50;;;;;;;;;;4385271;32;20077;-76
2022/05/11 09:59:40;;;;;;;2.25;1.40;;;;;;;;;;4366410;32;20081;-73
2022/05/11 10:02:32;;;;;;;3.95;1.58;;;;;;;;;;4380575;32;20332;-73
2022/05/11 10:05:28;;;;;;;3.87;1.58;;;;;;;;;;4382198;32;20073;-74
2022/05/11 10:08:06;;;;;;;2.85;1.50;;;;;;;;;;4377700;32;20090;-72
2022/05/11 10:11:03;;;;;;;3.37;1.65;;;;;;;;;;4376125;32;20100;-70
2022/05/11 10:13:35;;;;;;;3.17;1.58;;;;;;;;;;4372251;32;20164;-75
2022/05/11 10:22:22;;;;;;;4.57;1.40;;;;;;;;;;4376112;32;20189;-77
2022/05/11 10:25:16;;;;;;;1.25;1.00;;;;;;;;;;4396033;32;20179;-75
2022/05/11 10:27:58;;;;;;;2.75;1.08;;;;;;;;;;4387201;32;20081;-73
2022/05/11 10:30:40;;;;;;;5.03;1.30;;;;;;;;;;4358745;32;20074;-72
2022/05/11 10:33:09;;;;;;;2.90;1.40;;;;;;;;;;4375946;32;20487;-72
2022/05/11 10:36:09;;;;;;;2.33;1.30;;;;;;;;;;4374276;32;20159;-69
2022/05/11 10:38:57;;;;;;;4.03;0.98;;;;;;;;;;4356942;32;20507;-72
2022/05/11 10:41:33;;;;;;;2.58;1.33;;;;;;;;;;4384605;32;20535;-69
2022/05/11 10:44:19;;;;;;;2.08;1.12;;;;;;;;;;4374543;32;20550;-69
2022/05/11 10:46:58;;;;;;;2.30;1.30;;;;;;;;;;4389278;32;20218;-71
2022/05/11 10:49:29;;;;;;;1.30;1.15;;;;;;;;;;4388495;32;20069;-66
2022/05/11 10:52:07;;;;;;;4.15;1.40;;;;;;;;;;4386930;32;20141;-68
2022/05/11 10:54:44;;;;;;;1.42;1.02;;;;;;;;;;4381211;32;20558;-75
2022/05/11 10:57:35;;;;;;;1.30;1.15;;;;;;;;;;4366632;32;20170;-76
2022/05/11 11:00:09;;;;;;;2.03;1.23;;;;;;;;;;4368818;32;20078;-71
2022/05/11 11:03:01;;;;;;;1.33;0.75;;;;;;;;;;4393122;32;20090;-71
2022/05/11 11:09:07;;;;;;;1.52;1.00;;;;;;;;;;4378838;32;20139;-71
2022/05/11 11:11:57;;;;;;;1.60;1.00;;;;;;;;;;4362024;32;20092;-73
2022/05/11 11:14:37;;;;;;;2.33;1.02;;;;;;;;;;4351348;32;20098;-72
2022/05/11 11:17:06;;;;;;;1.33;1.00;;;;;;;;;;4367529;32;20070;-73
2022/05/11 11:19:34;;;;;;;2.58;0.85;;;;;;;;;;4364591;32;20154;-72
2022/05/11 11:23:12;;;;;;;3.65;0.95;;;;;;;;;;3849587;37;20075;-71
2022/05/11 11:25:54;;;;;;;3.33;1.10;;;;;;;;;;4373975;32;20480;-71
2022/05/11 11:28:34;;;;;;;4.22;1.35;;;;;;;;;;4372629;32;20117;-69
2022/05/11 11:31:00;;;;;;;3.10;1.00;;;;;;;;;;4371214;32;20105;-69
2022/05/11 11:33:39;;;;;;;2.40;1.20;;;;;;;;;;4402468;32;20197;-69
2022/05/11 11:36:26;;;;;;;2.87;1.55;;;;;;;;;;4386706;32;20105;-72
2022/05/11 11:38:53;;;;;;;2.25;1.08;;;;;;;;;;4369555;32;20168;-73
2022/05/11 11:41:28;;;;;;;2.37;1.00;;;;;;;;;;4368974;32;20106;-75
2022/05/11 11:43:56;;;;;;;1.45;0.82;;;;;;;;;;4388212;32;20089;-75
2022/05/11 11:46:35;;;;;;;2.20;1.00;;;;;;;;;;4401998;32;20170;-70
2022/05/11 11:49:07;;;;;;;1.42;0.90;;;;;;;;;;4363314;32;20093;-72
2022/05/11 11:51:51;;;;;;;2.05;1.15;;;;;;;;;;4386754;32;20512;-73
2022/05/11 11:54:43;;;;;;;0.85;0.80;;;;;;;;;;4385979;32;20188;-73
2022/05/11 11:57:21;;;;;;;1.40;1.20;;;;;;;;;;4401119;32;20069;-73
2022/05/11 11:59:50;;;;;;;1.48;0.90;;;;;;;;;;4378399;32;20130;-73
2022/05/11 12:02:30;;;;;;;2.55;1.30;;;;;;;;;;4375509;32;20134;-73
2022/05/11 12:05:20;;;;;;;3.67;1.30;;;;;;;;;;4375692;32;20690;-73
2022/05/11 12:16:26;;;;;;;1.33;1.02;;;;;;;;;;4391063;32;20142;-73
2022/05/11 12:21:32;;;;;;;6.57;1.35;;;;;;;;;;3849638;37;20062;-72
2022/05/11 12:24:02;;;;;;;2.53;1.23;;;;;;;;;;4400754;32;20086;-76
2022/05/11 12:26:56;;;;;;;3.67;1.40;;;;;;;;;;4392312;32;20069;-73
2022/05/11 12:32:09;;;;;;;3.50;1.48;;;;;;;;;;4405108;32;20070;-74
2022/05/11 12:34:44;;;;;;;2.90;1.40;;;;;;;;;;4416753;32;20065;-70
2022/05/11 12:40:15;;;;;;;3.50;1.37;;;;;;;;;;3779925;37;20071;-73
2022/05/11 12:42:53;;;;;;;3.87;1.83;;;;;;;;;;4342106;32;20686;-71
2022/05/11 12:45:33;;;;;;;2.75;1.20;;;;;;;;;;4331782;32;20090;-69
2022/05/11 12:48:00;;;;;;;1.37;1.05;;;;;;;;;;4342528;32;20094;-74
2022/05/11 12:50:28;;;;;;;5.60;1.48;;;;;;;;;;4348424;32;20531;-70
2022/05/11 12:53:17;;;;;;;4.85;1.30;;;;;;;;;;4345442;32;20200;-69
2022/05/11 12:55:51;;;;;;;2.05;1.35;;;;;;;;;;4349433;32;20109;-78
2022/05/11 12:58:19;;;;;;;3.78;1.23;;;;;;;;;;4339670;32;20125;-72
2022/05/11 13:00:46;;;;;;;1.73;1.10;;;;;;;;;;4350944;32;20536;-71
2022/05/11 13:03:28;;;;;;;2.45;1.33;;;;;;;;;;4343358;32;20174;-70
2022/05/11 13:06:00;;;;;;;5.30;1.37;;;;;;;;;;4314155;32;20137;-74
2022/05/11 13:08:30;;;;;;;2.25;1.23;;;;;;;;;;4344211;32;20173;-73
2022/05/11 13:10:57;;;;;;;2.80;1.45;;;;;;;;;;4357393;32;20575;-74
2022/05/11 13:13:34;;;;;;;2.10;1.40;;;;;;;;;;4335075;32;20136;-77
2022/05/11 13:16:24;;;;;;;3.62;1.02;;;;;;;;;;4342964;32;20109;-77
2022/05/11 13:19:04;;;;;;;1.48;0.90;;;;;;;;;;4352260;32;20137;-75
2022/05/11 13:21:35;;;;;;;1.67;1.02;;;;;;;;;;4330881;33;20075;-73
2022/05/11 13:24:04;;;;;;;2.42;1.45;;;;;;;;;;4324327;32;20098;-73
2022/05/11 13:26:44;;;;;;;3.00;0.88;;;;;;;;;;4328484;32;20063;-72
2022/05/11 13:29:31;;;;;;;2.58;1.27;;;;;;;;;;4331360;32;20067;-73
2022/05/11 13:32:02;;;;;;;4.22;1.23;;;;;;;;;;4348298;32;20162;-73
2022/05/11 13:34:41;;;;;;;2.60;1.00;;;;;;;;;;4322530;32;20142;-76
2022/05/11 13:37:27;;;;;;;2.28;0.77;;;;;;;;;;4338504;32;20135;-73
2022/05/11 13:39:54;;;;;;;2.58;1.17;;;;;;;;;;4338855;32;20078;-70
2022/05/11 13:42:23;;;;;;;1.98;0.98;;;;;;;;;;4320029;33;20158;-77
2022/05/11 13:45:00;;;;;;;2.40;0.90;;;;;;;;;;4332698;32;20113;-74
2022/05/11 13:50:28;;;;;;;4.82;1.37;;;;;;;;;;4343764;32;20146;-78
2022/05/11 13:53:18;;;;;;;3.12;1.02;;;;;;;;;;4327620;33;20171;-75
2022/05/11 13:56:00;;;;;;;2.45;1.20;;;;;;;;;;4327143;33;20095;-76
2022/05/11 13:58:30;;;;;;;2.42;0.70;;;;;;;;;;4300982;33;20207;-72
2022/05/11 14:02:12;;;;;;;2.93;0.87;;;;;;;;;;3845084;37;20094;-69
2022/05/11 14:04:41;;;;;;;0.70;0.70;;;;;;;;;;4389264;32;20735;-71
2022/05/11 14:07:32;;;;;;;1.48;0.98;;;;;;;;;;4388906;32;20614;-73
2022/05/11 14:09:59;;;;;;;1.08;0.80;;;;;;;;;;4389395;32;20085;-73
2022/05/11 14:12:26;;;;;;;0.62;0.60;;;;;;;;;;4376843;32;20769;-76
2022/05/11 14:14:53;;;;;;;2.30;0.98;;;;;;;;;;4404654;32;20075;-74
2022/05/11 14:17:25;;;;;;;2.67;0.98;;;;;;;;;;4375586;32;20069;-75
2022/05/11 14:19:57;;;;;;;1.48;0.80;;;;;;;;;;4374155;32;20059;-71
2022/05/11 14:22:24;;;;;;;2.35;1.00;;;;;;;;;;4383412;32;20104;-69
2022/05/11 14:24:51;;;;;;;3.85;1.17;;;;;;;;;;4386111;32;20181;-78
2022/05/11 14:27:18;;;;;;;1.37;1.00;;;;;;;;;;4375958;32;20081;-73
2022/05/11 14:29:47;;;;;;;2.45;0.70;;;;;;;;;;4378372;32;20085;-74
2022/05/11 14:32:32;;;;;;;4.28;1.25;;;;;;;;;;4403084;32;20073;-74
2022/05/11 14:34:59;;;;;;;3.17;0.80;;;;;;;;;;4376610;32;20087;-68
2022/05/11 14:37:29;;;;;;;2.00;0.95;;;;;;;;;;4364561;32;20107;-75
2022/05/11 14:39:59;;;;;;;2.67;0.98;;;;;;;;;;4366541;32;20070;-70
2022/05/11 14:42:26;;;;;;;2.05;0.73;;;;;;;;;;4401626;32;20165;-69
2022/05/11 14:44:52;;;;;;;4.87;1.17;;;;;;;;;;4377946;32;20492;-73
2022/05/11 14:47:20;;;;;;;1.27;0.90;;;;;;;;;;4403778;32;20073;-74
2022/05/11 14:49:47;;;;;;;3.47;1.35;;;;;;;;;;4409396;32;20065;-69
2022/05/11 14:52:13;;;;;;;3.75;1.17;;;;;;;;;;4405874;32;20101;-67
2022/05/11 14:54:40;;;;;;;2.80;0.88;;;;;;;;;;4384338;32;20579;-69
2022/05/11 15:02:38;;;;;;;1.37;0.80;;;;;;;;;;4391120;32;20097;-73
2022/05/11 15:05:06;;;;;;;1.10;0.95;;;;;;;;;;4391509;32;20156;-71
2022/05/11 15:07:34;;;;;;;0.90;0.45;;;;;;;;;;4368858;32;20116;-72
2022/05/11 15:10:01;;;;;;;1.55;0.80;;;;;;;;;;4389966;32;20086;-71
2022/05/11 15:15:14;;;;;;;1.83;1.00;;;;;;;;;;4380798;32;20101;-71
2022/05/11 15:17:41;;;;;;;1.85;0.93;;;;;;;;;;4367865;32;20073;-67
2022/05/11 15:20:10;;;;;;;5.00;1.00;;;;;;;;;;4365830;32;20452;-69
2022/05/11 15:22:37;;;;;;;1.90;0.90;;;;;;;;;;4379033;32;20114;-71
2022/05/11 15:25:05;;;;;;;1.35;1.02;;;;;;;;;;4365988;32;20488;-70
2022/05/11 15:27:31;;;;;;;3.12;1.55;;;;;;;;;;4375940;32;20166;-69
2022/05/11 15:29:59;;;;;;;2.28;1.50;;;;;;;;;;4387239;32;20073;-75
2022/05/11 15:32:27;;;;;;;1.98;1.17;;;;;;;;;;4368755;32;20516;-72
2022/05/11 15:34:56;;;;;;;3.30;0.90;;;;;;;;;;4369319;32;20090;-73
2022/05/11 15:37:23;;;;;;;2.87;1.08;;;;;;;;;;4380123;32;20104;-73
2022/05/11 15:39:49;;;;;;;3.08;1.40;;;;;;;;;;4383256;32;20095;-73
2022/05/11 15:42:21;;;;;;;5.87;1.15;;;;;;;;;;4385623;32;20152;-71
2022/05/11 15:44:49;;;;;;;2.00;1.10;;;;;;;;;;4368549;32;20109;-70
2022/05/11 15:47:16;;;;;;;1.73;1.30;;;;;;;;;;4372276;32;20105;-68
2022/05/11 15:49:43;;;;;;;1.85;1.12;;;;;;;;;;4361731;32;20095;-65
2022/05/11 15:52:14;;;;;;;3.50;1.15;;;;;;;;;;4389788;32;20094;-66
2022/05/11 15:54:41;;;;;;;1.45;0.85;;;;;;;;;;4376063;32;20081;-65
2022/05/11 15:57:08;;;;;;;2.47;1.20;;;;;;;;;;4363122;32;20179;-67
2022/05/11 15:59:35;;;;;;;2.22;1.20;;;;;;;;;;4389855;32;20196;-66
2022/05/11 16:02:03;;;;;;;5.97;1.77;;;;;;;;;;4375998;32;20116;-67
2022/05/11 16:07:20;;;;;;;4.83;1.53;;;;;;;;;;3854841;37;20074;-67
2022/05/11 16:09:47;;;;;;;3.12;1.27;;;;;;;;;;4416957;32;20846;-66
2022/05/11 16:12:15;;;;;;;1.37;1.08;;;;;;;;;;4403087;32;20115;-65
2022/05/11 16:14:42;;;;;;;1.20;0.93;;;;;;;;;;4414621;32;20496;-66
2022/05/11 16:19:56;;;;;;;1.30;0.93;;;;;;;;;;4416197;32;20499;-66
2022/05/11 16:22:25;;;;;;;3.53;1.50;;;;;;;;;;4417473;32;20096;-65
2022/05/11 16:24:52;;;;;;;1.85;1.30;;;;;;;;;;4416182;32;20097;-65
2022/05/11 16:27:19;;;;;;;3.35;1.05;;;;;;;;;;4415703;32;20517;-65
2022/05/11 16:29:45;;;;;;;3.85;1.40;;;;;;;;;;4417353;32;20184;-66
2022/05/11 16:32:13;;;;;;;1.92;1.12;;;;;;;;;;4415747;32;20611;-67
2022/05/11 16:34:42;;;;;;;1.73;1.20;;;;;;;;;;4416073;32;20088;-66
2022/05/11 16:37:11;;;;;;;1.35;1.10;;;;;;;;;;4416053;32;20077;-66
2022/05/11 16:39:38;;;;;;;1.87;1.30;;;;;;;;;;4403901;32;20081;-65
2022/05/11 16:42:05;;;;;;;4.47;1.65;;;;;;;;;;4417749;32;20176;-66
2022/05/11 16:44:34;;;;;;;2.10;1.50;;;;;;;;;;4416748;32;20101;-66
2022/05/11 16:47:03;;;;;;;3.87;1.75;;;;;;;;;;4404113;32;20505;-67
2022/05/11 16:49:30;;;;;;;3.50;1.40;;;;;;;;;;4417068;32;20153;-68
2022/05/11 16:51:56;;;;;;;2.45;1.65;;;;;;;;;;4404327;32;20099;-68
2022/05/11 16:54:24;;;;;;;3.40;1.55;;;;;;;;;;4416924;32;20108;-67
2022/05/11 16:56:53;;;;;;;3.78;1.77;;;;;;;;;;4404060;32;20492;-67
2022/05/11 16:59:20;;;;;;;2.53;1.75;;;;;;;;;;4416456;32;20093;-67
2022/05/11 17:01:48;;;;;;;3.72;1.50;;;;;;;;;;4416435;32;20092;-67
2022/05/11 17:04:15;;;;;;;2.90;1.50;;;;;;;;;;4416677;32;20073;-67
2022/05/11 17:06:42;;;;;;;4.37;2.15;;;;;;;;;;4403303;32;20082;-67
2022/05/11 17:09:09;;;;;;;4.10;1.67;;;;;;;;;;4416422;32;20455;-68
2022/05/11 17:11:37;;;;;;;3.03;1.73;;;;;;;;;;4418456;32;20113;-66
2022/05/11 17:14:04;;;;;;;3.55;1.70;;;;;;;;;;4416658;32;20482;-66
2022/05/11 17:16:30;;;;;;;2.67;1.80;;;;;;;;;;4416135;32;20077;-66
2022/05/11 17:18:57;;;;;;;4.78;1.87;;;;;;;;;;4393362;32;20524;-66
2022/05/11 17:21:25;;;;;;;3.47;2.00;;;;;;;;;;4406347;32;20067;-67
2022/05/11 17:23:52;;;;;;;3.30;1.67;;;;;;;;;;4406188;32;20149;-67
2022/05/11 17:26:19;;;;;;;1.87;1.40;;;;;;;;;;4381190;32;20527;-66
2022/05/11 17:28:46;;;;;;;2.58;1.95;;;;;;;;;;4393784;32;20486;-67
2022/05/11 17:31:12;;;;;;;2.72;1.80;;;;;;;;;;4407734;32;20309;-66
2022/05/11 17:33:39;;;;;;;4.15;2.22;;;;;;;;;;4407351;32;20101;-67
2022/05/11 17:36:07;;;;;;;3.17;2.20;;;;;;;;;;4406506;32;20548;-68
2022/05/11 17:38:34;;;;;;;4.60;1.85;;;;;;;;;;4393869;32;20085;-65
2022/05/11 17:41:02;;;;;;;3.08;1.80;;;;;;;;;;4393444;32;20448;-65
2022/05/11 17:43:28;;;;;;;3.58;1.80;;;;;;;;;;4393870;32;20511;-67
2022/05/11 17:45:55;;;;;;;2.83;1.75;;;;;;;;;;4405880;32;20088;-66
2022/05/11 17:48:24;;;;;;;2.35;1.60;;;;;;;;;;4406055;32;20479;-67
2022/05/11 17:50:51;;;;;;;2.25;1.42;;;;;;;;;;4406011;32;20607;-67
2022/05/11 17:53:18;;;;;;;3.55;1.65;;;;;;;;;;4405882;32;20560;-68
2022/05/11 17:55:47;;;;;;;4.40;2.42;;;;;;;;;;4405952;32;20057;-68
2022/05/11 17:58:16;;;;;;;4.32;2.37;;;;;;;;;;4406011;32;20099;-68
2022/05/11 18:00:45;;;;;;;2.75;1.95;;;;;;;;;;4406212;32;20495;-67
2022/05/11 18:03:13;;;;;;;3.47;2.35;;;;;;;;;;4393738;32;20153;-69
2022/05/11 18:08:19;;;;;;;4.00;2.23;;;;;;;;;;3856485;37;20066;-66
2022/05/11 18:10:47;;;;;;;2.47;1.42;;;;;;;;;;4405805;32;20093;-68
2022/05/11 18:13:14;;;;;;;3.45;1.75;;;;;;;;;;4419321;32;20089;-67
2022/05/11 18:15:41;;;;;;;3.85;2.22;;;;;;;;;;4417815;32;20084;-66
2022/05/11 18:18:09;;;;;;;5.20;2.33;;;;;;;;;;4404808;32;20085;-68
2022/05/11 18:20:41;;;;;;;2.00;1.20;;;;;;;;;;4417511;32;20089;-67
2022/05/11 18:23:08;;;;;;;4.35;2.67;;;;;;;;;;4405731;32;20069;-67
2022/05/11 18:25:36;;;;;;;5.60;2.75;;;;;;;;;;4417345;32;20065;-67
2022/05/11 18:28:06;;;;;;;6.15;2.60;;;;;;;;;;4419240;32;20523;-67
2022/05/11 18:30:35;;;;;;;4.50;1.73;;;;;;;;;;4419100;32;20077;-66
2022/05/11 18:33:02;;;;;;;4.72;2.10;;;;;;;;;;4404939;32;20065;-68
2022/05/11 18:35:28;;;;;;;3.55;2.10;;;;;;;;;;4419515;32;20528;-67
2022/05/11 18:37:55;;;;;;;5.25;3.00;;;;;;;;;;4418232;32;20156;-67
2022/05/11 18:40:22;;;;;;;3.90;2.37;;;;;;;;;;4405234;32;20156;-67
2022/05/11 18:42:49;;;;;;;6.18;2.22;;;;;;;;;;4404691;32;20082;-67
2022/05/11 18:45:16;;;;;;;3.05;2.08;;;;;;;;;;4418596;32;20507;-68
2022/05/11 18:47:43;;;;;;;4.68;2.83;;;;;;;;;;4419094;32;20070;-66
2022/05/11 18:50:10;;;;;;;5.05;2.60;;;;;;;;;;4417340;32;20184;-67
2022/05/11 18:52:36;;;;;;;4.28;2.90;;;;;;;;;;4417628;32;20085;-67
2022/05/11 18:55:04;;;;;;;4.53;2.80;;;;;;;;;;4418606;32;20148;-67
2022/05/11 18:57:30;;;;;;;3.78;2.33;;;;;;;;;;4404673;32;20092;-68
2022/05/11 18:59:57;;;;;;;5.30;2.80;;;;;;;;;;4417486;32;20157;-67
2022/05/11 19:02:24;;;;;;;4.20;2.25;;;;;;;;;;4405524;32;20103;-66
2022/05/11 19:04:51;;;;;;;4.87;2.45;;;;;;;;;;4405373;32;20089;-67
2022/05/11 19:07:17;;;;;;;3.05;1.75;;;;;;;;;;4418514;32;20135;-67
2022/05/11 19:09:44;;;;;;;4.18;2.47;;;;;;;;;;4404511;32;20507;-67
2022/05/11 19:12:11;;;;;;;4.10;2.58;;;;;;;;;;4404628;32;20099;-66
2022/05/11 19:14:38;;;;;;;5.55;2.25;;;;;;;;;;4417373;32;20084;-67
2022/05/11 19:17:05;;;;;;;4.70;2.67;;;;;;;;;;4404901;32;20089;-67
2022/05/11 19:19:32;;;;;;;3.67;2.17;;;;;;;;;;4395068;32;20081;-67
2022/05/11 19:21:58;;;;;;;4.28;2.50;;;;;;;;;;4407497;32;20499;-68
2022/05/11 19:24:25;;;;;;;3.90;2.65;;;;;;;;;;4408215;32;20081;-67
2022/05/11 19:26:52;;;;;;;5.12;2.35;;;;;;;;;;4406831;32;20085;-66
2022/05/11 19:29:19;;;;;;;3.70;2.50;;;;;;;;;;4408394;32;20100;-68
2022/05/11 19:31:46;;;;;;;4.03;2.53;;;;;;;;;;4394234;32;20077;-68
2022/05/11 19:34:13;;;;;;;3.33;2.37;;;;;;;;;;4394444;32;20120;-67
2022/05/11 19:36:40;;;;;;;3.90;2.45;;;;;;;;;;4408578;32;20583;-67
2022/05/11 19:39:10;;;;;;;4.05;1.98;;;;;;;;;;4394474;32;20158;-67
2022/05/11 19:41:37;;;;;;;2.70;1.90;;;;;;;;;;4407136;32;20185;-67
2022/05/11 19:44:06;;;;;;;3.58;2.22;;;;;;;;;;4394236;32;20148;-67
2022/05/11 19:46:33;;;;;;;3.12;1.50;;;;;;;;;;4406786;32;20100;-67
2022/05/11 19:48:59;;;;;;;1.33;0.40;;;;;;;;;;4406199;32;20149;-68
2022/05/11 19:51:26;;;;;;;4.30;2.10;;;;;;;;;;4407898;32;20507;-68
2022/05/11 19:53:53;;;;;;;3.85;2.30;;;;;;;;;;4393518;32;20104;-67
2022/05/11 19:56:20;;;;;;;2.17;1.20;;;;;;;;;;4393878;32;20092;-68
2022/05/11 19:58:47;;;;;;;3.10;2.05;;;;;;;;;;4406266;32;20073;-67
2022/05/11 20:01:15;;;;;;;2.95;2.00;;;;;;;;;;4394368;32;20165;-66
2022/05/11 20:03:42;;;;;;;3.42;2.00;;;;;;;;;;4406324;32;20150;-67
2022/05/11 20:06:14;;;;;;;3.78;1.77;;;;;;;;;;4405703;32;20109;-67
2022/05/11 20:08:42;;;;;;;4.20;2.28;;;;;;;;;;4393899;32;20150;-68
2022/05/11 20:11:10;;;;;;;3.05;2.17;;;;;;;;;;4406260;32;20188;-67
2022/05/11 20:13:38;;;;;;;1.87;1.50;;;;;;;;;;4407850;32;20085;-68
2022/05/11 20:16:05;;;;;;;2.40;1.45;;;;;;;;;;4394036;32;20085;-66
2022/05/11 20:18:33;;;;;;;3.78;2.22;;;;;;;;;;4393966;32;20512;-66
2022/05/11 20:21:00;;;;;;;2.75;1.60;;;;;;;;;;4406839;32;20077;-67
2022/05/11 20:23:28;;;;;;;2.20;1.55;;;;;;;;;;4394178;32;20080;-66
2022/05/11 20:25:55;;;;;;;3.25;1.85;;;;;;;;;;4406620;32;20089;-68
2022/05/11 20:28:22;;;;;;;2.15;1.40;;;;;;;;;;4393133;32;20073;-68
2022/05/11 20:30:49;;;;;;;2.37;1.50;;;;;;;;;;4406987;32;20156;-68
2022/05/11 20:36:01;;;;;;;4.10;2.00;;;;;;;;;;4406035;32;20096;-67
2022/05/11 20:38:28;;;;;;;2.25;1.60;;;;;;;;;;4406271;32;20144;-67
2022/05/11 20:40:55;;;;;;;2.85;1.65;;;;;;;;;;4405977;32;20089;-68
2022/05/11 20:43:21;;;;;;;2.15;1.60;;;;;;;;;;4406593;32;20092;-68
2022/05/11 20:45:48;;;;;;;2.90;1.75;;;;;;;;;;4380668;32;20085;-68
2022/05/11 20:48:15;;;;;;;2.28;1.80;;;;;;;;;;4380870;32;20610;-68
2022/05/11 20:50:44;;;;;;;3.40;1.83;;;;;;;;;;4405408;32;20065;-66
2022/05/11 20:53:11;;;;;;;1.40;1.27;;;;;;;;;;4393271;32;20097;-67
2022/05/11 20:55:39;;;;;;;3.30;1.92;;;;;;;;;;4392957;32;20073;-67
2022/05/11 20:58:07;;;;;;;1.77;1.50;;;;;;;;;;4405938;32;20073;-68
2022/05/11 21:00:34;;;;;;;2.65;1.70;;;;;;;;;;4405925;32;20073;-68
2022/05/11 21:03:02;;;;;;;1.92;1.48;;;;;;;;;;4380874;32;20156;-68
2022/05/11 21:05:30;;;;;;;2.97;1.50;;;;;;;;;;4407030;32;20086;-67
2022/05/11 21:07:57;;;;;;;2.53;1.60;;;;;;;;;;4405572;32;20089;-68
2022/05/11 21:10:25;;;;;;;1.83;1.50;;;;;;;;;;4406890;32;20066;-67
2022/05/11 21:12:52;;;;;;;1.70;1.20;;;;;;;;;;4392655;32;20161;-68
2022/05/11 21:15:19;;;;;;;3.20;1.70;;;;;;;;;;4380691;32;20125;-66
2022/05/11 21:17:46;;;;;;;2.10;1.62;;;;;;;;;;4406928;32;20072;-65
2022/05/11 21:20:16;;;;;;;3.72;1.60;;;;;;;;;;4405287;32;20055;-68
2022/05/11 21:22:42;;;;;;;3.45;1.60;;;;;;;;;;4406952;32;20088;-68
2022/05/11 21:25:10;;;;;;;2.17;1.58;;;;;;;;;;4406610;32;20156;-67
2022/05/11 21:27:37;;;;;;;2.87;1.70;;;;;;;;;;4392772;32;20161;-67
2022/05/11 21:30:08;;;;;;;2.22;1.50;;;;;;;;;;4405039;32;20073;-68
2022/05/11 21:32:34;;;;;;;2.05;1.60;;;;;;;;;;4404925;32;20097;-67
2022/05/11 21:35:06;;;;;;;2.55;1.50;;;;;;;;;;4392114;32;20623;-66
2022/05/11 21:37:33;;;;;;;3.62;1.67;;;;;;;;;;4404384;32;20117;-66
2022/05/11 21:40:00;;;;;;;2.95;1.70;;;;;;;;;;4405164;32;20120;-67
2022/05/11 21:42:27;;;;;;;1.95;1.50;;;;;;;;;;4406282;32;20148;-67
2022/05/11 21:44:53;;;;;;;2.60;1.50;;;;;;;;;;4404772;32;20069;-67
2022/05/11 21:47:20;;;;;;;2.72;1.35;;;;;;;;;;4392963;32;20069;-67
2022/05/11 21:49:47;;;;;;;1.73;1.23;;;;;;;;;;4405674;32;20096;-68
2022/05/11 21:52:13;;;;;;;2.37;1.40;;;;;;;;;;4406653;32;20072;-66
2022/05/11 21:54:40;;;;;;;2.80;1.50;;;;;;;;;;4406573;32;20512;-69
2022/05/11 21:57:07;;;;;;;1.75;1.50;;;;;;;;;;4406005;32;20226;-67
2022/05/11 21:59:34;;;;;;;2.75;1.50;;;;;;;;;;4405793;32;20145;-67
2022/05/11 22:02:01;;;;;;;1.90;1.15;;;;;;;;;;4405084;32;20083;-67
2022/05/11 22:04:28;;;;;;;1.90;1.37;;;;;;;;;;4406413;32;20089;-67
2022/05/11 22:06:55;;;;;;;3.62;1.50;;;;;;;;;;4392232;32;20077;-67
2022/05/11 22:09:22;;;;;;;2.33;1.37;;;;;;;;;;4404750;32;20595;-67
2022/05/11 22:11:49;;;;;;;2.87;1.08;;;;;;;;;;4405204;32;20100;-67
2022/05/11 22:14:15;;;;;;;2.58;1.45;;;;;;;;;;4392849;32;20081;-68
2022/05/11 22:16:42;;;;;;;1.33;1.12;;;;;;;;;;4404934;32;20158;-67
2022/05/11 22:19:09;;;;;;;1.87;1.27;;;;;;;;;;4406463;32;20157;-68
2022/05/11 22:21:36;;;;;;;1.87;1.10;;;;;;;;;;4404906;32;20093;-67
2022/05/11 22:24:03;;;;;;;1.17;0.88;;;;;;;;;;4404632;32;20107;-68
2022/05/11 22:26:30;;;;;;;1.58;0.93;;;;;;;;;;4379636;32;20178;-67
2022/05/11 22:28:57;;;;;;;2.03;0.82;;;;;;;;;;4405362;32;20100;-67
2022/05/11 22:31:24;;;;;;;0.62;0.60;;;;;;;;;;4405215;32;20076;-68
2022/05/11 22:33:50;;;;;;;0.70;0.43;;;;;;;;;;4406537;32;20165;-67
2022/05/11 22:36:17;;;;;;;1.95;0.70;;;;;;;;;;4392256;32;20073;-68
2022/05/11 22:38:44;;;;;;;0.50;0.50;;;;;;;;;;4379416;32;20165;-68
2022/05/11 22:41:10;;;;;;;0.90;0.50;;;;;;;;;;4392147;32;20072;-68
2022/05/11 22:46:16;;;;;;;3.00;0.90;;;;;;;;;;3857175;37;20058;-68
2022/05/11 22:48:43;;;;;;;0.73;0.50;;;;;;;;;;4419998;32;20074;-68
2022/05/11 22:51:10;;;;;;;0.90;0.60;;;;;;;;;;4405342;32;20097;-68
2022/05/11 22:53:36;;;;;;;1.12;0.73;;;;;;;;;;4419808;32;20080;-67
2022/05/11 22:56:04;;;;;;;1.12;0.43;;;;;;;;;;4405364;32;20109;-67
2022/05/11 22:58:31;;;;;;;1.67;0.90;;;;;;;;;;4418470;32;20070;-66
2022/05/11 23:00:57;;;;;;;2.00;0.70;;;;;;;;;;4419547;32;20093;-68
2022/05/11 23:03:26;;;;;;;0.95;0.62;;;;;;;;;;4419660;32;20088;-66
2022/05/11 23:05:53;;;;;;;0.75;0.70;;;;;;;;;;4418211;32;20177;-68
2022/05/11 23:08:19;;;;;;;0.90;0.70;;;;;;;;;;4418130;32;20221;-67
2022/05/11 23:10:46;;;;;;;1.23;0.50;;;;;;;;;;4393230;32;20085;-67
2022/05/11 23:13:13;;;;;;;1.20;0.47;;;;;;;;;;4418201;32;20089;-68
2022/05/11 23:15:40;;;;;;;0.68;0.50;;;;;;;;;;4418130;32;20073;-66
2022/05/11 23:18:09;;;;;;;2.25;0.60;;;;;;;;;;4417671;32;20540;-67
2022/05/11 23:20:37;;;;;;;1.65;1.10;;;;;;;;;;4405170;32;20089;-66
2022/05/11 23:23:05;;;;;;;2.83;0.73;;;;;;;;;;4404913;32;20073;-66
2022/05/11 23:25:32;;;;;;;0.35;0.30;;;;;;;;;;4405174;32;20077;-66
2022/05/11 23:28:00;;;;;;;1.20;0.50;;;;;;;;;;4417901;32;20076;-67
2022/05/11 23:30:28;;;;;;;1.10;0.80;;;;;;;;;;4417984;32;20077;-67
2022/05/11 23:32:55;;;;;;;0.98;0.65;;;;;;;;;;4417569;32;20519;-67
2022/05/11 23:35:22;;;;;;;0.88;0.40;;;;;;;;;;4417986;32;20088;-67
2022/05/11 23:37:49;;;;;;;0.55;0.47;;;;;;;;;;4404996;32;20084;-68
2022/05/11 23:40:17;;;;;;;1.48;0.60;;;;;;;;;;4405209;32;20515;-67
2022/05/11 23:42:43;;;;;;;0.68;0.60;;;;;;;;;;4418227;32;20156;-67
2022/05/11 23:45:14;;;;;;;0.60;0.50;;;;;;;;;;4417231;32;20149;-66
2022/05/11 23:47:43;;;;;;;1.27;1.10;;;;;;;;;;4417675;32;20500;-68
2022/05/11 23:50:09;;;;;;;1.08;0.80;;;;;;;;;;4417464;32;20600;-68
2022/05/11 23:52:38;;;;;;;1.30;0.80;;;;;;;;;;4417825;32;20140;-67
2022/05/11 23:55:05;;;;;;;2.42;0.80;;;;;;;;;;4418881;32;20085;-68
2022/05/11 23:57:32;;;;;;;0.93;0.57;;;;;;;;;;4408032;32;20172;-66
2022/05/11 23:59:59;;;;;;;0.50;0.50;;;;;;;;;;4407050;32;20521;-66
